sensor_id;sensor_type;location;lat;lon;timestamp;temperature;humidity
60848;DHT22;46681;47.696;9.140;2022-12-07T00:01:06;10.00;57.70
60848;DHT22;46681;47.696;9.140;2022-12-07T00:03:32;10.00;57.60
60848;DHT22;46681;47.696;9.140;2022-12-07T00:05:58;10.00;57.60
60848;DHT22;46681;47.696;9.140;2022-12-07T00:08:24;10.10;57.60
60848;DHT22;46681;47.696;9.140;2022-12-07T00:10:49;10.10;57.50
60848;DHT22;46681;47.696;9.140;2022-12-07T00:13:15;10.10;57.50
60848;DHT22;46681;47.696;9.140;2022-12-07T00:15:40;10.10;57.40
60848;DHT22;46681;47.696;9.140;2022-12-07T00:18:06;10.10;57.40
60848;DHT22;46681;47.696;9.140;2022-12-07T00:20:32;10.10;57.40
60848;DHT22;46681;47.696;9.140;2022-12-07T00:22:57;10.10;57.30
60848;DHT22;46681;47.696;9.140;2022-12-07T00:25:23;10.10;57.30
60848;DHT22;46681;47.696;9.140;2022-12-07T00:27:48;10.20;57.30
60848;DHT22;46681;47.696;9.140;2022-12-07T00:30:14;10.20;57.20
60848;DHT22;46681;47.696;9.140;2022-12-07T00:32:40;10.20;57.20
60848;DHT22;46681;47.696;9.140;2022-12-07T00:35:05;10.10;57.20
60848;DHT22;46681;47.696;9.140;2022-12-07T00:37:31;10.20;57.20
60848;DHT22;46681;47.696;9.140;2022-12-07T00:39:56;10.10;57.10
60848;DHT22;46681;47.696;9.140;2022-12-07T00:42:22;10.10;57.50
60848;DHT22;46681;47.696;9.140;2022-12-07T00:44:47;10.20;57.20
60848;DHT22;46681;47.696;9.140;2022-12-07T00:47:13;10.20;57.20
60848;DHT22;46681;47.696;9.140;2022-12-07T00:49:39;10.20;57.20
60848;DHT22;46681;47.696;9.140;2022-12-07T00:52:04;10.20;57.10
60848;DHT22;46681;47.696;9.140;2022-12-07T00:54:30;10.20;57.10
60848;DHT22;46681;47.696;9.140;2022-12-07T00:56:55;10.20;57.10
60848;DHT22;46681;47.696;9.140;2022-12-07T00:59:22;10.20;57.00
60848;DHT22;46681;47.696;9.140;2022-12-07T01:01:49;10.20;57.00
60848;DHT22;46681;47.696;9.140;2022-12-07T01:04:17;10.20;57.00
60848;DHT22;46681;47.696;9.140;2022-12-07T01:06:42;10.20;57.10
60848;DHT22;46681;47.696;9.140;2022-12-07T01:09:07;10.20;57.00
60848;DHT22;46681;47.696;9.140;2022-12-07T01:11:33;10.20;57.00
60848;DHT22;46681;47.696;9.140;2022-12-07T01:13:59;10.20;56.90
60848;DHT22;46681;47.696;9.140;2022-12-07T01:16:27;10.20;56.90
60848;DHT22;46681;47.696;9.140;2022-12-07T01:18:55;10.20;56.90
60848;DHT22;46681;47.696;9.140;2022-12-07T01:21:24;10.20;56.90
60848;DHT22;46681;47.696;9.140;2022-12-07T01:23:50;10.20;56.90
60848;DHT22;46681;47.696;9.140;2022-12-07T01:26:20;10.20;56.90
60848;DHT22;46681;47.696;9.140;2022-12-07T01:28:48;10.20;56.90
60848;DHT22;46681;47.696;9.140;2022-12-07T01:31:17;10.20;57.00
60848;DHT22;46681;47.696;9.140;2022-12-07T01:33:46;10.20;56.90
60848;DHT22;46681;47.696;9.140;2022-12-07T01:36:18;10.20;56.90
60848;DHT22;46681;47.696;9.140;2022-12-07T01:38:44;10.20;56.80
60848;DHT22;46681;47.696;9.140;2022-12-07T01:41:11;10.20;56.90
60848;DHT22;46681;47.696;9.140;2022-12-07T01:44:06;10.20;56.90
60848;DHT22;46681;47.696;9.140;2022-12-07T01:46:24;10.20;56.90
60848;DHT22;46681;47.696;9.140;2022-12-07T01:48:52;10.20;56.90
60848;DHT22;46681;47.696;9.140;2022-12-07T01:51:17;10.20;56.90
60848;DHT22;46681;47.696;9.140;2022-12-07T01:53:45;10.20;57.00
60848;DHT22;46681;47.696;9.140;2022-12-07T01:56:19;10.20;56.90
60848;DHT22;46681;47.696;9.140;2022-12-07T01:58:46;10.20;56.90
60848;DHT22;46681;47.696;9.140;2022-12-07T02:01:12;10.20;56.80
60848;DHT22;46681;47.696;9.140;2022-12-07T02:03:40;10.20;56.80
60848;DHT22;46681;47.696;9.140;2022-12-07T02:06:07;10.20;56.80
60848;DHT22;46681;47.696;9.140;2022-12-07T02:08:34;10.20;56.80
60848;DHT22;46681;47.696;9.140;2022-12-07T02:11:03;10.20;56.90
60848;DHT22;46681;47.696;9.140;2022-12-07T02:13:32;10.20;56.80
60848;DHT22;46681;47.696;9.140;2022-12-07T02:30:04;10.20;56.70
60848;DHT22;46681;47.696;9.140;2022-12-07T02:33:05;10.20;57.10
60848;DHT22;46681;47.696;9.140;2022-12-07T02:40:39;10.20;56.70
60848;DHT22;46681;47.696;9.140;2022-12-07T02:43:12;10.20;56.70
60848;DHT22;46681;47.696;9.140;2022-12-07T02:45:40;10.20;56.70
60848;DHT22;46681;47.696;9.140;2022-12-07T02:48:08;10.20;56.70
60848;DHT22;46681;47.696;9.140;2022-12-07T02:50:35;10.20;56.70
60848;DHT22;46681;47.696;9.140;2022-12-07T02:53:01;10.20;56.60
60848;DHT22;46681;47.696;9.140;2022-12-07T02:55:37;10.20;56.70
60848;DHT22;46681;47.696;9.140;2022-12-07T02:58:17;10.20;56.60
60848;DHT22;46681;47.696;9.140;2022-12-07T03:01:04;10.20;56.60
60848;DHT22;46681;47.696;9.140;2022-12-07T03:03:35;10.20;56.70
60848;DHT22;46681;47.696;9.140;2022-12-07T03:06:31;10.20;56.70
60848;DHT22;46681;47.696;9.140;2022-12-07T03:11:44;10.20;56.70
60848;DHT22;46681;47.696;9.140;2022-12-07T03:14:31;10.20;56.80
60848;DHT22;46681;47.696;9.140;2022-12-07T03:17:09;10.10;56.70
60848;DHT22;46681;47.696;9.140;2022-12-07T03:19:36;10.20;56.70
60848;DHT22;46681;47.696;9.140;2022-12-07T03:22:16;10.20;56.70
60848;DHT22;46681;47.696;9.140;2022-12-07T03:24:58;10.20;56.60
60848;DHT22;46681;47.696;9.140;2022-12-07T03:27:36;10.20;56.60
60848;DHT22;46681;47.696;9.140;2022-12-07T03:30:17;10.20;56.70
60848;DHT22;46681;47.696;9.140;2022-12-07T03:38:22;10.20;56.60
60848;DHT22;46681;47.696;9.140;2022-12-07T03:41:08;10.20;56.60
60848;DHT22;46681;47.696;9.140;2022-12-07T03:43:36;10.20;56.60
60848;DHT22;46681;47.696;9.140;2022-12-07T03:52:03;10.20;56.60
60848;DHT22;46681;47.696;9.140;2022-12-07T03:57:04;10.20;56.60
60848;DHT22;46681;47.696;9.140;2022-12-07T03:59:30;10.20;56.60
60848;DHT22;46681;47.696;9.140;2022-12-07T04:02:01;10.20;56.60
60848;DHT22;46681;47.696;9.140;2022-12-07T04:04:26;10.20;56.60
60848;DHT22;46681;47.696;9.140;2022-12-07T04:06:53;10.20;56.60
60848;DHT22;46681;47.696;9.140;2022-12-07T04:09:18;10.20;56.40
60848;DHT22;46681;47.696;9.140;2022-12-07T04:11:44;10.20;56.40
60848;DHT22;46681;47.696;9.140;2022-12-07T04:14:09;10.30;56.40
60848;DHT22;46681;47.696;9.140;2022-12-07T04:16:35;10.20;56.30
60848;DHT22;46681;47.696;9.140;2022-12-07T04:19:01;10.30;56.30
60848;DHT22;46681;47.696;9.140;2022-12-07T04:21:27;10.30;56.30
60848;DHT22;46681;47.696;9.140;2022-12-07T04:23:53;10.30;56.40
60848;DHT22;46681;47.696;9.140;2022-12-07T04:26:19;10.30;56.40
60848;DHT22;46681;47.696;9.140;2022-12-07T04:28:45;10.30;56.30
60848;DHT22;46681;47.696;9.140;2022-12-07T04:31:11;10.30;56.30
60848;DHT22;46681;47.696;9.140;2022-12-07T04:33:36;10.30;56.30
60848;DHT22;46681;47.696;9.140;2022-12-07T04:36:03;10.30;56.30
60848;DHT22;46681;47.696;9.140;2022-12-07T04:38:28;10.30;56.20
60848;DHT22;46681;47.696;9.140;2022-12-07T04:40:57;10.30;56.20
60848;DHT22;46681;47.696;9.140;2022-12-07T04:43:24;10.30;56.10
60848;DHT22;46681;47.696;9.140;2022-12-07T04:45:51;10.40;56.20
60848;DHT22;46681;47.696;9.140;2022-12-07T04:48:17;10.30;56.10
60848;DHT22;46681;47.696;9.140;2022-12-07T04:50:44;10.40;56.10
60848;DHT22;46681;47.696;9.140;2022-12-07T04:53:18;10.40;56.00
60848;DHT22;46681;47.696;9.140;2022-12-07T04:55:44;10.30;56.00
60848;DHT22;46681;47.696;9.140;2022-12-07T04:58:11;10.40;56.10
60848;DHT22;46681;47.696;9.140;2022-12-07T05:00:39;10.40;56.00
60848;DHT22;46681;47.696;9.140;2022-12-07T05:03:06;10.40;56.00
60848;DHT22;46681;47.696;9.140;2022-12-07T05:05:32;10.40;56.00
60848;DHT22;46681;47.696;9.140;2022-12-07T05:07:57;10.40;56.00
60848;DHT22;46681;47.696;9.140;2022-12-07T05:10:24;10.40;56.00
60848;DHT22;46681;47.696;9.140;2022-12-07T05:12:49;10.40;56.10
60848;DHT22;46681;47.696;9.140;2022-12-07T05:15:15;10.40;56.10
60848;DHT22;46681;47.696;9.140;2022-12-07T05:17:41;10.40;56.20
60848;DHT22;46681;47.696;9.140;2022-12-07T05:20:08;10.40;56.20
60848;DHT22;46681;47.696;9.140;2022-12-07T05:22:35;10.40;56.30
60848;DHT22;46681;47.696;9.140;2022-12-07T05:25:02;10.40;56.20
60848;DHT22;46681;47.696;9.140;2022-12-07T05:27:27;10.40;56.30
60848;DHT22;46681;47.696;9.140;2022-12-07T05:29:53;10.40;56.40
60848;DHT22;46681;47.696;9.140;2022-12-07T05:32:20;10.50;56.50
60848;DHT22;46681;47.696;9.140;2022-12-07T05:34:46;10.50;56.30
60848;DHT22;46681;47.696;9.140;2022-12-07T05:37:12;10.50;56.30
60848;DHT22;46681;47.696;9.140;2022-12-07T05:39:37;10.40;56.30
60848;DHT22;46681;47.696;9.140;2022-12-07T05:42:03;10.50;56.20
60848;DHT22;46681;47.696;9.140;2022-12-07T05:44:29;10.50;56.20
60848;DHT22;46681;47.696;9.140;2022-12-07T05:46:54;10.50;56.20
60848;DHT22;46681;47.696;9.140;2022-12-07T05:49:20;10.50;56.20
60848;DHT22;46681;47.696;9.140;2022-12-07T05:51:48;10.50;56.20
60848;DHT22;46681;47.696;9.140;2022-12-07T05:54:13;10.50;56.20
60848;DHT22;46681;47.696;9.140;2022-12-07T05:56:41;10.40;56.10
60848;DHT22;46681;47.696;9.140;2022-12-07T05:59:09;10.40;56.20
60848;DHT22;46681;47.696;9.140;2022-12-07T06:01:36;10.50;56.20
60848;DHT22;46681;47.696;9.140;2022-12-07T06:04:02;10.40;56.20
60848;DHT22;46681;47.696;9.140;2022-12-07T06:06:29;10.40;56.20
60848;DHT22;46681;47.696;9.140;2022-12-07T06:08:58;10.40;56.30
60848;DHT22;46681;47.696;9.140;2022-12-07T06:11:25;10.30;56.40
60848;DHT22;46681;47.696;9.140;2022-12-07T06:13:53;10.30;56.40
60848;DHT22;46681;47.696;9.140;2022-12-07T06:16:19;10.30;56.40
60848;DHT22;46681;47.696;9.140;2022-12-07T06:18:46;10.30;56.80
60848;DHT22;46681;47.696;9.140;2022-12-07T06:21:11;10.30;56.70
60848;DHT22;46681;47.696;9.140;2022-12-07T06:23:38;10.30;56.70
60848;DHT22;46681;47.696;9.140;2022-12-07T06:26:04;10.30;57.80
60848;DHT22;46681;47.696;9.140;2022-12-07T06:28:30;10.30;57.30
60848;DHT22;46681;47.696;9.140;2022-12-07T06:31:00;10.30;57.10
60848;DHT22;46681;47.696;9.140;2022-12-07T06:33:29;10.30;57.10
60848;DHT22;46681;47.696;9.140;2022-12-07T06:35:54;10.20;57.10
60848;DHT22;46681;47.696;9.140;2022-12-07T06:38:20;10.20;57.10
60848;DHT22;46681;47.696;9.140;2022-12-07T06:40:47;10.10;57.20
60848;DHT22;46681;47.696;9.140;2022-12-07T06:43:12;10.10;57.30
60848;DHT22;46681;47.696;9.140;2022-12-07T06:45:40;10.10;57.30
60848;DHT22;46681;47.696;9.140;2022-12-07T06:48:06;10.10;57.30
60848;DHT22;46681;47.696;9.140;2022-12-07T06:50:33;10.10;57.30
60848;DHT22;46681;47.696;9.140;2022-12-07T06:52:59;10.00;57.40
60848;DHT22;46681;47.696;9.140;2022-12-07T06:55:25;10.10;57.40
60848;DHT22;46681;47.696;9.140;2022-12-07T06:57:51;10.00;57.40
60848;DHT22;46681;47.696;9.140;2022-12-07T07:00:18;10.00;57.40
60848;DHT22;46681;47.696;9.140;2022-12-07T07:02:44;10.10;58.70
60848;DHT22;46681;47.696;9.140;2022-12-07T07:05:10;10.10;58.00
60848;DHT22;46681;47.696;9.140;2022-12-07T07:07:35;10.10;59.00
60848;DHT22;46681;47.696;9.140;2022-12-07T07:10:03;10.30;60.50
60848;DHT22;46681;47.696;9.140;2022-12-07T07:12:30;10.40;59.90
60848;DHT22;46681;47.696;9.140;2022-12-07T07:15:03;10.40;58.90
60848;DHT22;46681;47.696;9.140;2022-12-07T07:17:32;10.30;58.50
60848;DHT22;46681;47.696;9.140;2022-12-07T07:19:58;10.30;58.40
60848;DHT22;46681;47.696;9.140;2022-12-07T07:22:24;10.20;58.70
60848;DHT22;46681;47.696;9.140;2022-12-07T07:24:49;10.20;58.30
60848;DHT22;46681;47.696;9.140;2022-12-07T07:27:15;10.10;58.20
60848;DHT22;46681;47.696;9.140;2022-12-07T07:29:42;10.10;58.10
60848;DHT22;46681;47.696;9.140;2022-12-07T07:32:08;10.10;58.10
60848;DHT22;46681;47.696;9.140;2022-12-07T07:34:34;10.10;58.10
60848;DHT22;46681;47.696;9.140;2022-12-07T07:36:59;10.10;58.10
60848;DHT22;46681;47.696;9.140;2022-12-07T07:39:25;10.10;58.10
60848;DHT22;46681;47.696;9.140;2022-12-07T07:41:52;10.00;58.10
60848;DHT22;46681;47.696;9.140;2022-12-07T07:44:18;10.00;58.10
60848;DHT22;46681;47.696;9.140;2022-12-07T07:46:46;10.00;58.00
60848;DHT22;46681;47.696;9.140;2022-12-07T07:49:12;10.10;58.00
60848;DHT22;46681;47.696;9.140;2022-12-07T07:51:37;10.00;57.90
60848;DHT22;46681;47.696;9.140;2022-12-07T07:54:03;10.00;58.00
60848;DHT22;46681;47.696;9.140;2022-12-07T07:56:32;10.00;57.90
60848;DHT22;46681;47.696;9.140;2022-12-07T07:58:59;10.10;57.90
60848;DHT22;46681;47.696;9.140;2022-12-07T08:01:26;10.10;57.90
60848;DHT22;46681;47.696;9.140;2022-12-07T08:03:54;10.10;57.80
60848;DHT22;46681;47.696;9.140;2022-12-07T08:06:26;10.10;57.80
60848;DHT22;46681;47.696;9.140;2022-12-07T08:08:55;10.00;57.80
60848;DHT22;46681;47.696;9.140;2022-12-07T08:11:21;10.00;57.80
60848;DHT22;46681;47.696;9.140;2022-12-07T08:13:46;10.00;57.70
60848;DHT22;46681;47.696;9.140;2022-12-07T08:16:16;10.10;57.80
60848;DHT22;46681;47.696;9.140;2022-12-07T08:18:43;10.10;57.70
60848;DHT22;46681;47.696;9.140;2022-12-07T08:21:19;10.10;57.80
60848;DHT22;46681;47.696;9.140;2022-12-07T08:23:46;10.10;57.80
60848;DHT22;46681;47.696;9.140;2022-12-07T08:26:15;10.10;57.80
60848;DHT22;46681;47.696;9.140;2022-12-07T08:28:43;10.10;57.70
60848;DHT22;46681;47.696;9.140;2022-12-07T08:31:12;10.10;58.30
60848;DHT22;46681;47.696;9.140;2022-12-07T08:33:40;10.10;57.90
60848;DHT22;46681;47.696;9.140;2022-12-07T08:36:10;10.10;58.00
60848;DHT22;46681;47.696;9.140;2022-12-07T08:38:39;10.10;59.40
60848;DHT22;46681;47.696;9.140;2022-12-07T08:41:06;10.20;58.00
60848;DHT22;46681;47.696;9.140;2022-12-07T08:43:33;10.20;57.70
60848;DHT22;46681;47.696;9.140;2022-12-07T08:46:19;10.20;57.70
60848;DHT22;46681;47.696;9.140;2022-12-07T08:48:57;10.20;57.60
60848;DHT22;46681;47.696;9.140;2022-12-07T08:51:25;10.20;57.70
60848;DHT22;46681;47.696;9.140;2022-12-07T08:53:58;10.20;57.70
60848;DHT22;46681;47.696;9.140;2022-12-07T08:56:26;10.20;57.60
60848;DHT22;46681;47.696;9.140;2022-12-07T08:58:54;10.10;57.60
60848;DHT22;46681;47.696;9.140;2022-12-07T09:01:22;10.20;57.70
60848;DHT22;46681;47.696;9.140;2022-12-07T09:03:48;10.20;57.60
60848;DHT22;46681;47.696;9.140;2022-12-07T09:06:14;10.20;57.60
60848;DHT22;46681;47.696;9.140;2022-12-07T09:08:46;10.20;57.80
60848;DHT22;46681;47.696;9.140;2022-12-07T09:11:14;10.20;57.80
60848;DHT22;46681;47.696;9.140;2022-12-07T09:13:40;10.30;57.70
60848;DHT22;46681;47.696;9.140;2022-12-07T09:16:05;10.20;57.60
60848;DHT22;46681;47.696;9.140;2022-12-07T09:18:31;10.30;57.70
60848;DHT22;46681;47.696;9.140;2022-12-07T09:20:58;10.30;57.60
60848;DHT22;46681;47.696;9.140;2022-12-07T09:23:24;10.30;57.70
60848;DHT22;46681;47.696;9.140;2022-12-07T09:25:51;10.30;57.60
60848;DHT22;46681;47.696;9.140;2022-12-07T09:28:17;10.30;57.60
60848;DHT22;46681;47.696;9.140;2022-12-07T09:30:48;10.30;57.50
60848;DHT22;46681;47.696;9.140;2022-12-07T09:33:18;10.30;57.50
60848;DHT22;46681;47.696;9.140;2022-12-07T09:35:45;10.30;57.50
60848;DHT22;46681;47.696;9.140;2022-12-07T09:38:12;10.30;57.50
60848;DHT22;46681;47.696;9.140;2022-12-07T09:40:38;10.30;57.90
60848;DHT22;46681;47.696;9.140;2022-12-07T09:43:05;10.30;57.50
60848;DHT22;46681;47.696;9.140;2022-12-07T09:45:34;10.30;57.40
60848;DHT22;46681;47.696;9.140;2022-12-07T09:48:02;10.40;57.50
60848;DHT22;46681;47.696;9.140;2022-12-07T09:50:29;10.30;57.40
60848;DHT22;46681;47.696;9.140;2022-12-07T09:53:06;10.40;57.40
60848;DHT22;46681;47.696;9.140;2022-12-07T09:55:34;10.40;57.40
60848;DHT22;46681;47.696;9.140;2022-12-07T09:58:01;10.40;57.40
60848;DHT22;46681;47.696;9.140;2022-12-07T10:00:27;10.40;57.30
60848;DHT22;46681;47.696;9.140;2022-12-07T10:03:02;10.40;57.30
60848;DHT22;46681;47.696;9.140;2022-12-07T10:05:42;10.40;57.30
60848;DHT22;46681;47.696;9.140;2022-12-07T10:08:13;10.40;57.30
60848;DHT22;46681;47.696;9.140;2022-12-07T10:10:39;10.50;57.30
60848;DHT22;46681;47.696;9.140;2022-12-07T10:13:09;10.50;57.30
60848;DHT22;46681;47.696;9.140;2022-12-07T10:15:57;10.50;57.30
60848;DHT22;46681;47.696;9.140;2022-12-07T10:18:39;10.50;57.20
60848;DHT22;46681;47.696;9.140;2022-12-07T10:21:12;10.50;57.20
60848;DHT22;46681;47.696;9.140;2022-12-07T10:24:17;10.50;57.30
60848;DHT22;46681;47.696;9.140;2022-12-07T10:26:52;10.50;57.30
60848;DHT22;46681;47.696;9.140;2022-12-07T10:29:28;10.50;57.30
60848;DHT22;46681;47.696;9.140;2022-12-07T10:32:02;10.50;57.30
60848;DHT22;46681;47.696;9.140;2022-12-07T10:34:35;10.50;57.20
60848;DHT22;46681;47.696;9.140;2022-12-07T10:39:44;10.50;57.30
60848;DHT22;46681;47.696;9.140;2022-12-07T10:42:17;10.60;57.30
60848;DHT22;46681;47.696;9.140;2022-12-07T10:44:49;10.50;57.30
60848;DHT22;46681;47.696;9.140;2022-12-07T10:47:33;10.50;57.30
60848;DHT22;46681;47.696;9.140;2022-12-07T10:53:36;10.50;57.70
60848;DHT22;46681;47.696;9.140;2022-12-07T10:56:11;10.60;57.60
60848;DHT22;46681;47.696;9.140;2022-12-07T11:02:50;10.50;57.60
60848;DHT22;46681;47.696;9.140;2022-12-07T11:05:02;10.50;57.60
60848;DHT22;46681;47.696;9.140;2022-12-07T11:10:17;10.50;57.50
60848;DHT22;46681;47.696;9.140;2022-12-07T11:18:57;10.50;57.50
60848;DHT22;46681;47.696;9.140;2022-12-07T11:21:44;10.50;57.60
60848;DHT22;46681;47.696;9.140;2022-12-07T11:24:30;10.50;57.60
60848;DHT22;46681;47.696;9.140;2022-12-07T11:27:29;10.60;57.60
60848;DHT22;46681;47.696;9.140;2022-12-07T11:30:13;10.60;57.60
60848;DHT22;46681;47.696;9.140;2022-12-07T11:38:35;10.60;57.50
60848;DHT22;46681;47.696;9.140;2022-12-07T11:41:06;10.60;57.50
60848;DHT22;46681;47.696;9.140;2022-12-07T11:43:36;10.60;57.50
60848;DHT22;46681;47.696;9.140;2022-12-07T11:46:12;10.60;57.40
60848;DHT22;46681;47.696;9.140;2022-12-07T11:48:44;10.60;57.40
60848;DHT22;46681;47.696;9.140;2022-12-07T11:51:15;10.70;57.40
60848;DHT22;46681;47.696;9.140;2022-12-07T11:54:19;10.70;57.40
60848;DHT22;46681;47.696;9.140;2022-12-07T11:56:53;10.60;57.30
60848;DHT22;46681;47.696;9.140;2022-12-07T11:59:41;10.70;57.30
60848;DHT22;46681;47.696;9.140;2022-12-07T12:05:27;10.70;57.20
60848;DHT22;46681;47.696;9.140;2022-12-07T12:21:29;10.80;57.20
60848;DHT22;46681;47.696;9.140;2022-12-07T12:24:27;10.80;57.10
60848;DHT22;46681;47.696;9.140;2022-12-07T12:27:03;10.80;57.10
60848;DHT22;46681;47.696;9.140;2022-12-07T12:29:38;10.80;57.10
60848;DHT22;46681;47.696;9.140;2022-12-07T12:32:13;10.80;57.00
60848;DHT22;46681;47.696;9.140;2022-12-07T12:35:01;10.80;57.00
60848;DHT22;46681;47.696;9.140;2022-12-07T12:45:28;10.90;57.00
60848;DHT22;46681;47.696;9.140;2022-12-07T12:54:26;10.90;56.90
60848;DHT22;46681;47.696;9.140;2022-12-07T12:57:06;11.00;60.30
60848;DHT22;46681;47.696;9.140;2022-12-07T13:15:49;11.60;58.40
60848;DHT22;46681;47.696;9.140;2022-12-07T13:23:55;11.50;58.10
60848;DHT22;46681;47.696;9.140;2022-12-07T13:31:51;11.40;57.60
60848;DHT22;46681;47.696;9.140;2022-12-07T13:34:41;11.40;62.80
60848;DHT22;46681;47.696;9.140;2022-12-07T13:37:36;11.50;60.70
60848;DHT22;46681;47.696;9.140;2022-12-07T13:40:23;11.40;58.90
60848;DHT22;46681;47.696;9.140;2022-12-07T13:43:04;11.40;58.60
60848;DHT22;46681;47.696;9.140;2022-12-07T13:45:38;11.30;58.40
60848;DHT22;46681;47.696;9.140;2022-12-07T13:48:05;11.30;58.20
60848;DHT22;46681;47.696;9.140;2022-12-07T13:50:31;11.30;58.30
60848;DHT22;46681;47.696;9.140;2022-12-07T13:53:13;11.30;58.20
60848;DHT22;46681;47.696;9.140;2022-12-07T13:55:44;11.30;58.40
60848;DHT22;46681;47.696;9.140;2022-12-07T13:58:13;11.20;58.30
60848;DHT22;46681;47.696;9.140;2022-12-07T14:00:42;11.20;57.90
60848;DHT22;46681;47.696;9.140;2022-12-07T14:05:42;11.20;57.70
60848;DHT22;46681;47.696;9.140;2022-12-07T14:10:55;11.20;57.70
60848;DHT22;46681;47.696;9.140;2022-12-07T14:13:40;11.10;57.60
60848;DHT22;46681;47.696;9.140;2022-12-07T14:16:24;11.10;57.90
60848;DHT22;46681;47.696;9.140;2022-12-07T14:18:50;11.20;59.50
60848;DHT22;46681;47.696;9.140;2022-12-07T14:21:19;11.20;58.30
60848;DHT22;46681;47.696;9.140;2022-12-07T14:24:18;11.20;57.90
60848;DHT22;46681;47.696;9.140;2022-12-07T14:26:48;11.20;57.80
60848;DHT22;46681;47.696;9.140;2022-12-07T14:31:54;11.10;57.70
60848;DHT22;46681;47.696;9.140;2022-12-07T14:34:25;11.10;57.70
60848;DHT22;46681;47.696;9.140;2022-12-07T14:36:52;11.00;57.60
60848;DHT22;46681;47.696;9.140;2022-12-07T14:39:17;11.00;57.60
60848;DHT22;46681;47.696;9.140;2022-12-07T14:41:43;11.00;57.60
60848;DHT22;46681;47.696;9.140;2022-12-07T14:44:13;11.00;57.60
60848;DHT22;46681;47.696;9.140;2022-12-07T14:46:41;10.90;57.60
60848;DHT22;46681;47.696;9.140;2022-12-07T14:49:07;10.90;57.50
60848;DHT22;46681;47.696;9.140;2022-12-07T14:51:35;10.90;57.60
60848;DHT22;46681;47.696;9.140;2022-12-07T14:54:33;10.90;57.50
60848;DHT22;46681;47.696;9.140;2022-12-07T14:56:59;10.90;57.50
60848;DHT22;46681;47.696;9.140;2022-12-07T14:59:26;10.80;57.50
60848;DHT22;46681;47.696;9.140;2022-12-07T15:01:54;10.80;57.40
60848;DHT22;46681;47.696;9.140;2022-12-07T15:04:22;10.80;57.50
60848;DHT22;46681;47.696;9.140;2022-12-07T15:07:03;10.80;57.50
60848;DHT22;46681;47.696;9.140;2022-12-07T15:09:29;10.70;57.50
60848;DHT22;46681;47.696;9.140;2022-12-07T15:11:56;10.70;57.50
60848;DHT22;46681;47.696;9.140;2022-12-07T15:14:24;10.70;57.50
60848;DHT22;46681;47.696;9.140;2022-12-07T15:16:51;10.70;57.50
60848;DHT22;46681;47.696;9.140;2022-12-07T15:19:23;10.70;57.50
60848;DHT22;46681;47.696;9.140;2022-12-07T15:21:50;10.60;57.40
60848;DHT22;46681;47.696;9.140;2022-12-07T15:24:16;10.60;57.40
60848;DHT22;46681;47.696;9.140;2022-12-07T15:26:46;10.60;57.40
60848;DHT22;46681;47.696;9.140;2022-12-07T15:29:13;10.70;57.40
60848;DHT22;46681;47.696;9.140;2022-12-07T15:31:38;10.60;57.40
60848;DHT22;46681;47.696;9.140;2022-12-07T15:34:04;10.60;57.30
60848;DHT22;46681;47.696;9.140;2022-12-07T15:36:33;10.60;57.40
60848;DHT22;46681;47.696;9.140;2022-12-07T15:39:00;10.60;57.40
60848;DHT22;46681;47.696;9.140;2022-12-07T15:41:28;10.60;57.90
60848;DHT22;46681;47.696;9.140;2022-12-07T15:43:53;10.50;57.70
60848;DHT22;46681;47.696;9.140;2022-12-07T15:46:19;10.60;58.70
60848;DHT22;46681;47.696;9.140;2022-12-07T15:48:50;10.60;58.60
60848;DHT22;46681;47.696;9.140;2022-12-07T15:51:16;10.60;58.40
60848;DHT22;46681;47.696;9.140;2022-12-07T15:53:42;10.60;58.00
60848;DHT22;46681;47.696;9.140;2022-12-07T15:56:09;10.50;57.80
60848;DHT22;46681;47.696;9.140;2022-12-07T15:58:39;10.50;57.70
60848;DHT22;46681;47.696;9.140;2022-12-07T16:01:19;10.50;59.20
60848;DHT22;46681;47.696;9.140;2022-12-07T16:03:46;10.50;58.00
60848;DHT22;46681;47.696;9.140;2022-12-07T16:06:16;10.50;57.80
60848;DHT22;46681;47.696;9.140;2022-12-07T16:08:43;10.50;57.80
60848;DHT22;46681;47.696;9.140;2022-12-07T16:11:17;10.50;57.80
60848;DHT22;46681;47.696;9.140;2022-12-07T16:13:44;10.50;58.90
60848;DHT22;46681;47.696;9.140;2022-12-07T16:16:13;10.50;58.00
60848;DHT22;46681;47.696;9.140;2022-12-07T16:18:46;10.40;57.80
60848;DHT22;46681;47.696;9.140;2022-12-07T16:21:12;10.40;57.80
60848;DHT22;46681;47.696;9.140;2022-12-07T16:23:45;10.40;58.00
60848;DHT22;46681;47.696;9.140;2022-12-07T16:26:16;10.40;58.20
60848;DHT22;46681;47.696;9.140;2022-12-07T16:28:47;10.50;69.10
60848;DHT22;46681;47.696;9.140;2022-12-07T16:31:16;10.70;71.80
60848;DHT22;46681;47.696;9.140;2022-12-07T16:33:44;10.70;67.80
60848;DHT22;46681;47.696;9.140;2022-12-07T16:36:12;10.70;64.20
60848;DHT22;46681;47.696;9.140;2022-12-07T16:38:41;10.70;59.20
60848;DHT22;46681;47.696;9.140;2022-12-07T16:41:09;10.60;59.30
60848;DHT22;46681;47.696;9.140;2022-12-07T16:43:37;10.70;60.00
60848;DHT22;46681;47.696;9.140;2022-12-07T16:46:03;10.70;58.50
60848;DHT22;46681;47.696;9.140;2022-12-07T16:48:34;10.70;58.20
60848;DHT22;46681;47.696;9.140;2022-12-07T16:51:04;10.70;57.80
60848;DHT22;46681;47.696;9.140;2022-12-07T16:53:31;10.70;57.60
60848;DHT22;46681;47.696;9.140;2022-12-07T16:55:59;10.70;57.20
60848;DHT22;46681;47.696;9.140;2022-12-07T16:58:28;10.80;57.00
60848;DHT22;46681;47.696;9.140;2022-12-07T17:00:56;10.80;56.70
60848;DHT22;46681;47.696;9.140;2022-12-07T17:03:23;10.80;56.40
60848;DHT22;46681;47.696;9.140;2022-12-07T17:06:13;10.80;56.20
60848;DHT22;46681;47.696;9.140;2022-12-07T17:08:41;10.80;57.20
60848;DHT22;46681;47.696;9.140;2022-12-07T17:11:14;10.90;57.20
60848;DHT22;46681;47.696;9.140;2022-12-07T17:13:42;11.30;67.70
60848;DHT22;46681;47.696;9.140;2022-12-07T17:16:07;11.70;64.80
60848;DHT22;46681;47.696;9.140;2022-12-07T17:18:35;11.60;60.60
60848;DHT22;46681;47.696;9.140;2022-12-07T17:21:07;11.50;59.10
60848;DHT22;46681;47.696;9.140;2022-12-07T17:23:36;11.40;58.50
60848;DHT22;46681;47.696;9.140;2022-12-07T17:26:14;11.30;58.10
60848;DHT22;46681;47.696;9.140;2022-12-07T17:28:41;11.10;57.70
60848;DHT22;46681;47.696;9.140;2022-12-07T17:31:09;11.10;57.50
60848;DHT22;46681;47.696;9.140;2022-12-07T17:33:37;10.90;57.40
60848;DHT22;46681;47.696;9.140;2022-12-07T17:36:24;10.80;57.30
60848;DHT22;46681;47.696;9.140;2022-12-07T17:38:55;10.70;57.30
60848;DHT22;46681;47.696;9.140;2022-12-07T17:41:25;10.70;57.30
60848;DHT22;46681;47.696;9.140;2022-12-07T17:43:52;10.60;57.30
60848;DHT22;46681;47.696;9.140;2022-12-07T17:46:19;10.50;57.60
60848;DHT22;46681;47.696;9.140;2022-12-07T17:48:44;10.40;57.60
60848;DHT22;46681;47.696;9.140;2022-12-07T17:51:11;10.40;57.30
60848;DHT22;46681;47.696;9.140;2022-12-07T17:53:37;10.30;57.10